createdAt,value
2023-03-13T00:01:27.098Z,101405.88
2023-03-13T00:03:55.641Z,101419.56
2023-03-13T00:06:32.373Z,101412.88
2023-03-13T00:09:00.887Z,101425.91
2023-03-13T00:11:29.705Z,101416.75
2023-03-13T00:13:59.400Z,101426.75
2023-03-13T00:16:35.775Z,101421.78
2023-03-13T00:19:06.884Z,101426.22
2023-03-13T00:21:37.568Z,101429.91
2023-03-13T00:24:05.293Z,101424.97
2023-03-13T00:26:34.436Z,101426.66
2023-03-13T00:29:05.793Z,101435.66
2023-03-13T00:31:34.340Z,101421.56
2023-03-13T00:34:04.098Z,101424.22
2023-03-13T00:36:34.185Z,101427.91
2023-03-13T00:39:07.190Z,101426.09
2023-03-13T00:41:37.197Z,101435.97
2023-03-13T00:44:08.410Z,101439.34
2023-03-13T00:46:37.097Z,101437.44
2023-03-13T00:49:04.874Z,101435.13
2023-03-13T00:51:33.489Z,101438.75
2023-03-13T00:54:01.163Z,101443.81
2023-03-13T00:56:32.878Z,101449.13
2023-03-13T00:59:01.643Z,101436.59
2023-03-13T01:01:34.296Z,101442.00
2023-03-13T01:04:09.973Z,101446.38
2023-03-13T01:06:42.779Z,101450.81
2023-03-13T01:09:15.668Z,101469.44
2023-03-13T01:11:46.709Z,101470.09
2023-03-13T01:14:17.255Z,101476.31
2023-03-13T01:16:45.446Z,101491.75
2023-03-13T01:19:16.219Z,101492.97
2023-03-13T01:21:45.311Z,101497.84
2023-03-13T01:24:13.159Z,101496.97
2023-03-13T01:26:43.028Z,101505.19
2023-03-13T01:29:14.092Z,101508.44
2023-03-13T01:31:41.505Z,101507.59
2023-03-13T01:34:15.312Z,101515.59
2023-03-13T01:36:44.066Z,101516.25
2023-03-13T01:39:11.473Z,101521.25
2023-03-13T01:41:42.633Z,101529.03
2023-03-13T01:44:25.537Z,101529.44
2023-03-13T01:46:53.016Z,101535.50
2023-03-13T01:49:28.236Z,101540.59
2023-03-13T01:52:02.298Z,101545.34
2023-03-13T01:54:52.491Z,101552.56
2023-03-13T01:57:42.728Z,101553.44
2023-03-13T02:00:16.764Z,101564.31
2023-03-13T02:02:52.815Z,101572.09
2023-03-13T02:05:23.114Z,101578.06
2023-03-13T02:07:56.043Z,101576.75
2023-03-13T02:10:26.571Z,101577.69
2023-03-13T02:13:02.686Z,101581.88
2023-03-13T02:15:34.803Z,101588.19
2023-03-13T02:18:02.236Z,101588.78
2023-03-13T02:20:33.686Z,101590.50
2023-03-13T02:23:05.886Z,101600.69
2023-03-13T02:25:48.286Z,101605.59
2023-03-13T02:28:35.709Z,101611.50
2023-03-13T02:31:05.845Z,101608.00
2023-03-13T02:33:40.536Z,101619.69
2023-03-13T02:36:13.616Z,101622.53
2023-03-13T02:38:59.899Z,101620.38
2023-03-13T02:41:29.189Z,101635.09
2023-03-13T02:43:56.971Z,101641.38
2023-03-13T02:46:25.488Z,101634.66
2023-03-13T02:48:56.830Z,101644.47
2023-03-13T02:51:46.325Z,101652.91
2023-03-13T02:54:24.503Z,101651.38
2023-03-13T02:56:57.550Z,101648.66
2023-03-13T02:59:25.718Z,101648.56
2023-03-13T03:01:53.261Z,101655.91
2023-03-13T03:04:23.151Z,101658.22
2023-03-13T03:06:51.707Z,101664.25
2023-03-13T03:09:20.547Z,101671.44
2023-03-13T03:11:48.352Z,101670.88
2023-03-13T03:14:18.062Z,101677.47
2023-03-13T03:16:46.248Z,101679.16
2023-03-13T03:19:15.570Z,101675.78
2023-03-13T03:21:43.419Z,101676.34
2023-03-13T03:24:11.249Z,101674.44
2023-03-13T03:26:38.620Z,101684.38
2023-03-13T03:29:07.950Z,101686.94
2023-03-13T03:31:37.274Z,101696.38
2023-03-13T03:34:04.716Z,101692.81
2023-03-13T03:36:32.113Z,101694.41
2023-03-13T03:39:00.118Z,101698.63
2023-03-13T03:41:27.566Z,101707.16
2023-03-13T03:43:55.058Z,101714.66
2023-03-13T03:46:22.499Z,101724.63
2023-03-13T03:48:49.976Z,101724.53
2023-03-13T03:51:17.514Z,101724.63
2023-03-13T03:53:46.300Z,101726.25
2023-03-13T03:56:14.350Z,101732.50
2023-03-13T03:58:41.760Z,101740.22
2023-03-13T04:01:09.336Z,101745.16
2023-03-13T04:03:36.754Z,101749.88
2023-03-13T04:06:07.253Z,101747.50
2023-03-13T04:08:36.650Z,101758.31
2023-03-13T04:11:04.876Z,101755.13
2023-03-13T04:13:34.033Z,101759.50
2023-03-13T04:16:07.618Z,101768.44
2023-03-13T04:18:37.102Z,101766.09
2023-03-13T04:21:06.339Z,101771.56
2023-03-13T04:23:33.916Z,101768.22
2023-03-13T04:26:01.347Z,101773.84
2023-03-13T04:28:29.179Z,101775.19
2023-03-13T04:30:58.341Z,101782.91
2023-03-13T04:33:45.594Z,101794.47
2023-03-13T04:36:13.027Z,101792.97
2023-03-13T04:38:43.143Z,101806.84
2023-03-13T04:41:12.151Z,101805.41
2023-03-13T04:43:40.767Z,101803.34
2023-03-13T04:46:08.302Z,101817.34
2023-03-13T04:48:35.732Z,101816.13
2023-03-13T04:51:03.303Z,101825.47
2023-03-13T04:53:34.125Z,101837.38
2023-03-13T04:56:04.565Z,101840.88
2023-03-13T04:58:32.048Z,101847.41
2023-03-13T05:01:02.121Z,101846.19
2023-03-13T05:03:29.758Z,101849.53
2023-03-13T05:05:57.159Z,101866.31
2023-03-13T05:08:25.286Z,101859.06
2023-03-13T05:10:52.643Z,101865.69
2023-03-13T05:13:20.386Z,101871.56
2023-03-13T05:15:48.627Z,101875.19
2023-03-13T05:18:16.827Z,101881.50
2023-03-13T05:20:44.236Z,101881.25
2023-03-13T05:23:12.081Z,101890.53
2023-03-13T05:25:39.631Z,101895.25
2023-03-13T05:28:07.119Z,101891.66
2023-03-13T05:30:35.914Z,101905.16
2023-03-13T05:33:05.984Z,101903.91
2023-03-13T05:35:33.569Z,101906.19
2023-03-13T05:38:01.028Z,101912.88
2023-03-13T05:40:28.430Z,101912.03
2023-03-13T05:42:56.311Z,101917.47
2023-03-13T05:45:23.669Z,101930.41
2023-03-13T05:47:51.093Z,101925.59
2023-03-13T05:50:18.562Z,101927.88
2023-03-13T05:52:47.245Z,101945.66
2023-03-13T05:55:14.621Z,101934.34
2023-03-13T05:57:48.095Z,101940.22
2023-03-13T06:00:17.800Z,101945.72
2023-03-13T06:02:45.498Z,101947.13
2023-03-13T06:05:15.282Z,101953.16
2023-03-13T06:07:42.989Z,101957.25
2023-03-13T06:10:11.377Z,101956.72
2023-03-13T06:12:39.012Z,101966.59
2023-03-13T06:15:07.652Z,101969.44
2023-03-13T06:17:36.231Z,101976.75
2023-03-13T06:20:05.610Z,101975.03
2023-03-13T06:22:36.019Z,101983.19
2023-03-13T06:25:03.548Z,101987.13
2023-03-13T06:27:31.072Z,101986.13
2023-03-13T06:29:58.526Z,101988.38
2023-03-13T06:32:26.092Z,101982.28
2023-03-13T06:34:54.506Z,101999.13
2023-03-13T06:37:21.871Z,101997.28
2023-03-13T06:39:49.336Z,102005.09
2023-03-13T06:42:17.028Z,102005.97
2023-03-13T06:44:44.903Z,102006.34
2023-03-13T06:47:14.430Z,102008.56
2023-03-13T06:49:43.100Z,102007.53
2023-03-13T06:52:12.915Z,102019.91
2023-03-13T06:54:42.506Z,102021.91
2023-03-13T06:57:09.885Z,102024.81
2023-03-13T06:59:37.318Z,102025.69
2023-03-13T07:02:05.056Z,102026.84
2023-03-13T07:04:39.064Z,102026.47
2023-03-13T07:07:06.871Z,102027.22
2023-03-13T07:09:34.357Z,102029.16
2023-03-13T07:12:03.381Z,102031.59
2023-03-13T07:14:31.048Z,102033.16
2023-03-13T07:16:59.831Z,102026.72
2023-03-13T07:19:27.593Z,102041.16
2023-03-13T07:21:55.359Z,102036.03
2023-03-13T07:24:24.971Z,102039.44
2023-03-13T07:27:05.378Z,102043.53
2023-03-13T07:29:34.878Z,102037.00
2023-03-13T07:32:02.415Z,102037.13
2023-03-13T07:34:30.407Z,102046.09
2023-03-13T07:36:59.071Z,102034.75
2023-03-13T07:39:26.943Z,102043.84
2023-03-13T07:41:54.451Z,102037.81
2023-03-13T07:44:21.907Z,102040.81
2023-03-13T07:46:50.292Z,102042.28
2023-03-13T07:49:17.684Z,102057.44
2023-03-13T07:51:47.802Z,102056.81
2023-03-13T07:54:15.975Z,102042.91
2023-03-13T07:56:43.372Z,102042.28
2023-03-13T07:59:11.557Z,102043.91
2023-03-13T08:01:39.148Z,102052.28
2023-03-13T08:04:06.480Z,102056.56
2023-03-13T08:06:41.146Z,102054.56
2023-03-13T08:09:09.946Z,102056.66
2023-03-13T08:11:41.329Z,102069.00
2023-03-13T08:14:11.039Z,102072.44
2023-03-13T08:16:38.707Z,102065.00
2023-03-13T08:19:06.672Z,102060.91
2023-03-13T08:21:36.739Z,102062.00
2023-03-13T08:24:07.268Z,102057.03
2023-03-13T08:26:42.363Z,102059.53
2023-03-13T08:29:12.668Z,102066.50
2023-03-13T08:31:48.786Z,102060.25
2023-03-13T08:34:17.955Z,102070.25
2023-03-13T08:36:46.255Z,102051.34
2023-03-13T08:39:19.550Z,102065.28
2023-03-13T08:41:47.508Z,102060.84
2023-03-13T08:44:21.403Z,102057.13
2023-03-13T08:46:49.500Z,102052.44
2023-03-13T08:49:17.969Z,102059.56
2023-03-13T08:51:45.922Z,102054.38
2023-03-13T08:54:13.469Z,102054.75
2023-03-13T08:56:43.632Z,102059.25
2023-03-13T08:59:11.223Z,102048.63
2023-03-13T09:01:38.743Z,102055.47
2023-03-13T09:04:06.751Z,102055.84
2023-03-13T09:06:36.151Z,102060.00
2023-03-13T09:09:05.659Z,102066.03
2023-03-13T09:11:42.230Z,102073.63
2023-03-13T09:14:10.618Z,102063.97
2023-03-13T09:16:38.922Z,102078.97
2023-03-13T09:19:06.759Z,102066.94
2023-03-13T09:21:36.196Z,102064.03
2023-03-13T09:24:04.093Z,102072.28
2023-03-13T09:26:31.549Z,102077.75
2023-03-13T09:29:00.282Z,102071.84
2023-03-13T09:31:30.528Z,102077.78
2023-03-13T09:34:02.145Z,102066.16
2023-03-13T09:36:29.897Z,102084.88
2023-03-13T09:38:59.826Z,102077.63
2023-03-13T09:41:39.488Z,102073.72
2023-03-13T09:44:18.126Z,102082.31
2023-03-13T09:46:54.683Z,102076.63
2023-03-13T09:49:37.427Z,102072.88
2023-03-13T09:52:19.788Z,102069.50
2023-03-13T09:55:27.404Z,102075.56
2023-03-13T09:58:24.655Z,102064.66
2023-03-13T10:01:01.132Z,102063.00
2023-03-13T10:03:35.414Z,102068.53
2023-03-13T10:06:13.139Z,102059.91
2023-03-13T10:08:40.852Z,102058.66
2023-03-13T10:11:17.609Z,102060.34
2023-03-13T10:13:53.547Z,102058.50
2023-03-13T10:16:34.383Z,102050.16
2023-03-13T10:19:15.907Z,102053.28
2023-03-13T10:21:50.347Z,102061.03
2023-03-13T10:24:35.631Z,102052.88
2023-03-13T10:27:03.981Z,102053.09
2023-03-13T10:29:32.225Z,102057.94
2023-03-13T10:32:02.137Z,102046.59
2023-03-13T10:34:51.391Z,102049.03
2023-03-13T10:37:27.438Z,102045.94
2023-03-13T10:39:55.152Z,102056.22
2023-03-13T10:42:33.630Z,102045.38
2023-03-13T10:45:05.340Z,102043.53
2023-03-13T10:47:35.080Z,102033.72
2023-03-13T10:50:04.299Z,102043.13
2023-03-13T10:52:40.634Z,102043.38
2023-03-13T10:55:13.538Z,102043.81
2023-03-13T10:57:44.655Z,102044.66
2023-03-13T11:00:24.317Z,102038.72
2023-03-13T11:02:54.543Z,102041.06
2023-03-13T11:05:45.395Z,102040.38
2023-03-13T11:08:25.464Z,102031.47
2023-03-13T11:10:57.448Z,102037.34
2023-03-13T11:13:36.993Z,102036.00
2023-03-13T11:16:28.888Z,102035.81
2023-03-13T11:19:15.284Z,102037.22
2023-03-13T11:22:07.735Z,102024.44
2023-03-13T11:24:55.998Z,102025.66
2023-03-13T11:27:43.066Z,102025.53
2023-03-13T11:30:47.829Z,102015.34
2023-03-13T11:33:29.496Z,102016.69
2023-03-13T11:36:08.911Z,102015.59
2023-03-13T11:38:46.809Z,102010.75
2023-03-13T11:41:27.425Z,102010.22
2023-03-13T11:44:23.384Z,102019.19
2023-03-13T11:47:13.931Z,102017.91
2023-03-13T11:50:00.425Z,102015.91
2023-03-13T11:52:30.794Z,102011.56
2023-03-13T11:55:14.243Z,102021.72
2023-03-13T11:58:00.030Z,102019.03
2023-03-13T12:00:36.907Z,102021.22
2023-03-13T12:03:20.562Z,102017.84
2023-03-13T12:05:53.976Z,102025.31
2023-03-13T12:08:24.227Z,102024.28
2023-03-13T12:11:18.923Z,102033.28
2023-03-13T12:14:24.501Z,102023.72
2023-03-13T12:17:01.310Z,102027.06
2023-03-13T12:19:41.388Z,102032.47
2023-03-13T12:22:19.077Z,102028.91
2023-03-13T12:24:55.755Z,102021.25
2023-03-13T12:27:34.144Z,102024.41
2023-03-13T12:30:33.749Z,102022.88
2023-03-13T12:33:44.511Z,102026.13
2023-03-13T12:36:29.589Z,102029.19
2023-03-13T12:39:00.901Z,102033.25
2023-03-13T12:41:36.168Z,102033.66
2023-03-13T12:44:09.032Z,102034.75
2023-03-13T12:47:36.208Z,102028.44
2023-03-13T12:50:06.643Z,102025.34
2023-03-13T12:53:11.480Z,102032.63
2023-03-13T12:56:00.328Z,102028.16
2023-03-13T12:58:42.730Z,102024.56
2023-03-13T13:01:19.870Z,102025.06
2023-03-13T13:03:56.404Z,102025.16
2023-03-13T13:06:24.273Z,102022.66
2023-03-13T13:08:54.575Z,102020.16
2023-03-13T13:11:34.358Z,102023.50
2023-03-13T13:14:24.875Z,102019.06
2023-03-13T13:17:31.627Z,102012.75
2023-03-13T13:20:19.614Z,102019.78
2023-03-13T13:22:52.367Z,102017.81
2023-03-13T13:25:32.426Z,102010.91
2023-03-13T13:28:26.496Z,102010.47
2023-03-13T13:30:56.505Z,102010.25
2023-03-13T13:33:36.571Z,102008.28
2023-03-13T13:36:10.642Z,102009.53
2023-03-13T13:38:43.956Z,102006.69
2023-03-13T13:41:12.129Z,102014.31
2023-03-13T13:43:43.282Z,102006.81
2023-03-13T13:46:30.168Z,102013.19
2023-03-13T13:49:06.944Z,102009.53
2023-03-13T13:51:42.088Z,101999.22
2023-03-13T13:54:19.458Z,102003.63
2023-03-13T13:56:50.137Z,102002.47
2023-03-13T13:59:22.483Z,102000.53
2023-03-13T14:02:11.294Z,101993.69
2023-03-13T14:04:46.802Z,101994.22
2023-03-13T14:07:20.023Z,102000.16
2023-03-13T14:10:19.286Z,102000.56
2023-03-13T14:12:56.218Z,102001.19
2023-03-13T14:15:26.397Z,101996.69
2023-03-13T14:18:30.473Z,101998.50
2023-03-13T14:21:13.979Z,102001.13
2023-03-13T14:23:45.196Z,101997.63
2023-03-13T14:26:20.073Z,101995.38
2023-03-13T14:28:59.676Z,101991.09
2023-03-13T14:31:34.863Z,101995.22
2023-03-13T14:34:09.662Z,101994.66
2023-03-13T14:36:52.405Z,101991.75
2023-03-13T14:39:37.341Z,101993.94
2023-03-13T14:42:12.759Z,101988.75
2023-03-13T14:44:43.039Z,101991.47
2023-03-13T14:47:19.258Z,101995.69
2023-03-13T14:49:47.625Z,102004.97
2023-03-13T14:52:23.617Z,102001.47
2023-03-13T14:54:59.210Z,102003.16
2023-03-13T14:57:27.724Z,101993.28
2023-03-13T15:00:16.624Z,101993.22
2023-03-13T15:02:44.077Z,101995.63
2023-03-13T15:05:31.671Z,101996.41
2023-03-13T15:07:59.201Z,101990.34
2023-03-13T15:10:37.224Z,101985.59
2023-03-13T15:13:36.209Z,101993.31
2023-03-13T15:16:14.725Z,101996.00
2023-03-13T15:18:42.220Z,101998.88
2023-03-13T15:21:12.758Z,102006.78
2023-03-13T15:23:50.176Z,102003.09
2023-03-13T15:26:17.875Z,102009.75
2023-03-13T15:28:45.717Z,102000.50
2023-03-13T15:31:14.770Z,102013.47
2023-03-13T15:33:44.230Z,102015.72
2023-03-13T15:36:12.226Z,102019.31
2023-03-13T15:38:40.688Z,102021.56
2023-03-13T15:41:09.418Z,102021.88
2023-03-13T15:43:38.387Z,102018.16
2023-03-13T15:46:13.638Z,102010.81
2023-03-13T15:48:47.605Z,102013.75
2023-03-13T15:51:16.854Z,102010.94
2023-03-13T15:53:46.394Z,102012.66
2023-03-13T15:56:19.947Z,102009.31
2023-03-13T15:58:48.923Z,102002.59
2023-03-13T16:01:18.647Z,101995.72
2023-03-13T16:03:46.458Z,102003.41
2023-03-13T16:06:21.409Z,102002.84
2023-03-13T16:08:49.019Z,102008.00
2023-03-13T16:11:17.539Z,102006.00
2023-03-13T16:13:47.413Z,102002.75
2023-03-13T16:16:29.510Z,102010.03
2023-03-13T16:18:58.578Z,102015.50
2023-03-13T16:21:32.120Z,102018.03
2023-03-13T16:23:59.791Z,102012.19
2023-03-13T16:26:30.235Z,102023.00
2023-03-13T16:28:58.584Z,102030.75
2023-03-13T16:31:28.740Z,102041.31
2023-03-13T16:33:57.858Z,102052.50
2023-03-13T16:36:29.693Z,102055.66
2023-03-13T16:39:01.984Z,102057.72
2023-03-13T16:41:29.993Z,102056.03
2023-03-13T16:43:57.504Z,102060.34
2023-03-13T16:46:32.667Z,102058.56
2023-03-13T16:49:00.096Z,102068.25
2023-03-13T16:51:28.970Z,102060.50
2023-03-13T16:54:00.328Z,102055.72
2023-03-13T16:56:41.101Z,102057.13
2023-03-13T16:59:18.044Z,102061.63
2023-03-13T17:01:47.290Z,102073.38
2023-03-13T17:04:15.131Z,102074.41
2023-03-13T17:06:44.803Z,102070.00
2023-03-13T17:09:15.662Z,102065.47
2023-03-13T17:11:43.894Z,102071.50
2023-03-13T17:14:11.431Z,102074.91
2023-03-13T17:16:42.612Z,102085.06
2023-03-13T17:19:14.091Z,102078.66
2023-03-13T17:21:41.828Z,102075.00
2023-03-13T17:24:09.325Z,102071.63
2023-03-13T17:26:42.179Z,102081.44
2023-03-13T17:29:16.384Z,102081.63
2023-03-13T17:31:44.060Z,102083.28
2023-03-13T17:34:13.126Z,102088.88
2023-03-13T17:36:41.360Z,102084.44
2023-03-13T17:39:13.483Z,102075.91
2023-03-13T17:41:41.951Z,102068.69
2023-03-13T17:44:09.449Z,102069.94
2023-03-13T17:46:47.091Z,102075.88
2023-03-13T17:49:17.341Z,102071.63
2023-03-13T17:51:46.440Z,102070.25
2023-03-13T17:54:15.847Z,102072.50
2023-03-13T17:56:44.793Z,102089.94
2023-03-13T17:59:17.704Z,102086.00
2023-03-13T18:01:46.047Z,102095.94
2023-03-13T18:04:20.760Z,102102.53
2023-03-13T18:06:50.577Z,102107.22
2023-03-13T18:09:20.999Z,102108.28
2023-03-13T18:11:49.804Z,102112.44
2023-03-13T18:14:17.519Z,102112.16
2023-03-13T18:16:48.625Z,102115.31
2023-03-13T18:19:24.845Z,102103.91
2023-03-13T18:21:55.708Z,102108.69
2023-03-13T18:24:27.983Z,102111.88
2023-03-13T18:26:55.427Z,102124.63
2023-03-13T18:29:29.358Z,102118.63
2023-03-13T18:32:00.518Z,102131.22
2023-03-13T18:34:29.371Z,102137.31
2023-03-13T18:36:57.388Z,102125.59
2023-03-13T18:39:25.548Z,102134.91
2023-03-13T18:41:52.961Z,102130.00
2023-03-13T18:44:21.150Z,102130.66
2023-03-13T18:46:50.677Z,102139.13
2023-03-13T18:49:25.033Z,102146.47
2023-03-13T18:51:54.030Z,102148.09
2023-03-13T18:54:21.420Z,102144.38
2023-03-13T18:56:49.337Z,102151.97
2023-03-13T18:59:20.927Z,102159.97
2023-03-13T19:01:49.171Z,102171.19
2023-03-13T19:04:18.238Z,102166.91
2023-03-13T19:06:47.007Z,102164.75
2023-03-13T19:09:41.723Z,102166.16
2023-03-13T19:12:05.226Z,102174.88
2023-03-13T19:14:32.690Z,102167.75
2023-03-13T19:17:00.103Z,102169.66
2023-03-13T19:19:27.624Z,102180.59
2023-03-13T19:21:57.209Z,102170.97
2023-03-13T19:24:26.967Z,102179.44
2023-03-13T19:27:00.527Z,102182.66
2023-03-13T19:29:29.204Z,102176.84
2023-03-13T19:31:56.891Z,102185.28
2023-03-13T19:34:24.951Z,102189.94
2023-03-13T19:36:53.678Z,102177.69
2023-03-13T19:39:26.423Z,102179.88
2023-03-13T19:41:54.486Z,102188.91
2023-03-13T19:44:22.634Z,102189.28
2023-03-13T19:46:54.720Z,102187.94
2023-03-13T19:49:22.106Z,102180.34
2023-03-13T19:51:49.886Z,102172.19
2023-03-13T19:54:17.333Z,102178.50
2023-03-13T19:56:48.941Z,102182.16
2023-03-13T19:59:19.176Z,102178.25
2023-03-13T20:01:46.677Z,102166.63
2023-03-13T20:04:14.342Z,102163.28
2023-03-13T20:06:43.050Z,102169.34
2023-03-13T20:09:17.622Z,102156.22
2023-03-13T20:11:45.879Z,102152.59
2023-03-13T20:14:17.263Z,102149.84
2023-03-13T20:16:47.611Z,102154.09
2023-03-13T20:19:16.103Z,102164.41
2023-03-13T20:21:44.872Z,102157.34
2023-03-13T20:24:12.430Z,102154.06
2023-03-13T20:26:40.099Z,102158.94
2023-03-13T20:29:07.708Z,102154.53
2023-03-13T20:31:35.699Z,102148.19
2023-03-13T20:34:09.492Z,102156.53
2023-03-13T20:36:37.017Z,102146.78
2023-03-13T20:39:05.643Z,102135.88
2023-03-13T20:41:33.111Z,102128.97
2023-03-13T20:44:00.655Z,102135.25
2023-03-13T20:46:29.338Z,102135.56
2023-03-13T20:48:58.928Z,102127.09
2023-03-13T20:51:32.578Z,102133.25
2023-03-13T20:54:00.939Z,102138.19
2023-03-13T20:56:29.190Z,102135.69
2023-03-13T20:58:56.944Z,102140.53
2023-03-13T21:01:26.076Z,102135.00
2023-03-13T21:03:54.847Z,102135.44
2023-03-13T21:06:22.398Z,102137.94
2023-03-13T21:08:49.825Z,102138.94
2023-03-13T21:11:20.980Z,102140.84
2023-03-13T21:13:49.768Z,102137.47
2023-03-13T21:16:19.060Z,102129.09
2023-03-13T21:18:47.750Z,102132.69
2023-03-13T21:21:18.875Z,102145.31
2023-03-13T21:23:52.176Z,102142.78
2023-03-13T21:26:20.593Z,102146.56
2023-03-13T21:28:48.228Z,102152.88
2023-03-13T21:31:18.308Z,102136.81
2023-03-13T21:33:47.145Z,102138.69
2023-03-13T21:36:17.294Z,102133.38
2023-03-13T21:38:45.067Z,102148.09
2023-03-13T21:41:17.868Z,102147.75
2023-03-13T21:43:45.740Z,102146.72
2023-03-13T21:46:15.811Z,102140.22
2023-03-13T21:51:18.542Z,102150.75
2023-03-13T21:53:49.609Z,102139.53
2023-03-13T21:56:17.491Z,102145.88
2023-03-13T21:58:45.625Z,102141.94
2023-03-13T22:01:15.062Z,102139.72
2023-03-13T22:03:42.914Z,102141.75
2023-03-13T22:06:16.154Z,102139.88
2023-03-13T22:08:49.642Z,102142.00
2023-03-13T22:11:21.709Z,102135.94
2023-03-13T22:13:51.597Z,102144.16
2023-03-13T22:16:21.145Z,102139.53
2023-03-13T22:18:51.739Z,102143.97
2023-03-13T22:21:21.184Z,102140.56
2023-03-13T22:23:48.558Z,102148.41
2023-03-13T22:26:16.289Z,102135.41
2023-03-13T22:28:43.804Z,102149.69
2023-03-13T22:31:12.201Z,102144.22
2023-03-13T22:33:42.262Z,102139.75
2023-03-13T22:36:10.431Z,102137.97
2023-03-13T22:38:39.965Z,102141.41
2023-03-13T22:41:09.813Z,102134.75
2023-03-13T22:43:41.697Z,102132.69
2023-03-13T22:46:11.508Z,102132.19
2023-03-13T22:48:39.840Z,102138.06
2023-03-13T22:51:10.113Z,102132.84
2023-03-13T22:53:40.469Z,102136.56
2023-03-13T22:56:10.103Z,102136.34
2023-03-13T22:58:40.477Z,102136.25
2023-03-13T23:01:13.437Z,102144.66
2023-03-13T23:03:41.682Z,102140.03
2023-03-13T23:06:14.977Z,102132.34
2023-03-13T23:08:43.926Z,102137.94
2023-03-13T23:11:11.634Z,102146.28
2023-03-13T23:13:42.342Z,102144.47
2023-03-13T23:16:11.915Z,102146.34
2023-03-13T23:18:39.685Z,102149.00
2023-03-13T23:21:12.133Z,102138.63
2023-03-13T23:23:41.822Z,102138.97
2023-03-13T23:26:14.772Z,102130.50
2023-03-13T23:28:42.661Z,102133.00
2023-03-13T23:31:15.604Z,102141.78
2023-03-13T23:33:47.228Z,102139.31
2023-03-13T23:36:17.755Z,102134.00
2023-03-13T23:38:49.319Z,102126.66
2023-03-13T23:41:16.928Z,102128.88
2023-03-13T23:43:44.426Z,102119.16
2023-03-13T23:46:22.980Z,102125.97
2023-03-13T23:48:55.367Z,102127.91
2023-03-13T23:51:25.902Z,102118.94
2023-03-13T23:53:53.478Z,102121.69
2023-03-13T23:56:20.862Z,102127.19
2023-03-13T23:58:55.723Z,102115.69
